Aérodrome :
LOGIN :

S'inscrire | Disclaimer

   EN    FR    IT 

 










Légende :    VFR   VFR Marginal   IFR   IFR Intensif   IFR Très Intensif
Visi : 
Plafond : 
>= 8 km
>= 3000ft
5 à 8 km
1000 à 3000 ft
1500m à 5 km
500 à 1000 ft
800 à 1500m
200 à 500 ft
< 800m
< 200 ft
Symboles :   Orages  Brouillard  Fortes neiges  Fortes précipitations  Vent > 20 kt
SIGMETs :   Divers  Orages  Givrage  Turbulence  Onde Orograph.  Cendres Volcan.






- Altitude de l'aérodrome : 16 ft
- Code IATA : LPX


EVLA - Liepaja

DERNIER METAR :
  • 061820Z AUTO 23021KT 9999 OVC007/// 08/08 Q0998

METARs EXPIRÉS :
  • 061750Z AUTO 23023KT 9999 OVC007/// 08/08 Q0998
  • 061720Z AUTO 23022KT 9000 OVC007/// 08/08 Q0998
  • 061650Z AUTO 23020KT 9999 OVC007/// 08/08 Q0998
  • 061620Z AUTO 23023KT 9999 OVC007/// 08/08 Q0998
  • 061550Z AUTO 23023KT 9000 OVC007/// 07/07 Q0998

TAF TAF EVLA
Valide du 06 à 18h jusqu'au 07 à 18h UTC


061703Z 0618/0718 22018KT 6000 OVC005
TEMPO 0618/0621 22025G35KT 4000 -RA BKN004
TEMPO 0621/0709 4000 -RA BKN004
TEMPO 0709/0718 23020G30KT



MET'MAP, la Météo Aéronautique d'un coup d'oeil ! - Copyright ORBIFLY Décembre 2007 - Disclaimer

ORBIFLY MET'MAP TEAM :

Programmation & Développement : Alexandra Zaïnal
Sur une idée originale de : Baudouin d'Aumeries
Assistance à la programmation : Marc-Olivier Méhu
Soutien technique & logistique : Manuel Goepfert

Contact : metmap@orbifly.com




SOURCES & CREDITS :

   NOAA